首页
METAR-TAF:

METAR-TAF

机场 :

Dalhart Municipal Airport

Dalhart, 得克萨斯州, 美国

纬度: 36-01-24N, 经度: 102-32-50W, 海拔: 1216米

当前天气观测

该预报发布于51分钟前的22:53 UTC
风速12节,风向北转东北
温度 4°C
湿度 35%
气压 1016 hPa
能見度: 16.1公里
阴天层高于7000英尺

METAR: KDHT 092253Z AUTO 03012KT 10SM OVC070 04/M10 A3001 RMK AO2 SLP154 T00441100

时间: 17:44 (23:44 UTC)

预报

该预报发布于13分钟前的23:31 UTC
预报有效从10日的 00点(UTC)到 10日的 24点(UTC)
风速8节,风向东转东北
能見度: 10公里
多云层高于7000英尺
多云层高于30000英尺
从 10日的 0400点(UTC)
风速6节,风向多变
能見度: 10公里
散云层高于30000英尺
从 10日的 1600点(UTC)
风速13节,风向南转西南
能見度: 10公里
少量云层高于30000英尺

TAF: KDHT 092331Z 1000/1024 06008KT P6SM BKN070 BKN300 FM100400 VRB06KT P6SM SCT300 FM101600 21013KT P6SM FEW300

超过4000个机场的气象观测和天气预报(METAR&TAF报告)。

可查询的气象台以黄色和红色小点在地图上表示。

将鼠标移到小点上方,可查看气象台名称。

然后点击查看天气观测和预报。

如需切换地图:点击带黑十字的绿色按钮放大地图;点击带横线的绿色按钮缩小地图;或者点击绿色箭头查看邻近地区的地图。


METAR-TAF: